Arapahoe, Nebraska
Current Conditions -  °F | °C
As of 3:15 AM on Monday 24 Nov 2014 (Local Time) from KHDE Reporting Station
Overcast Overcast  
Wind Chill: -4°   Ceiling: 5500
Heat Index:   Visibility: 10mi
Dew Point: -6°   Wind: 12mph
Humidity: 61%   Direction: 280°W
Pressure: 29.66"   Gusts: NA
Location:  40.3°N, 99.9°W
Report Text: KHDE 240915Z AUTO 28010KT 10SM OVC055 01/M06 A2966 RMK AO2 T00061062
Loading
Personal Weather Stations






























Interactive Weather Map New forecast layout! Learn more

10-Day Weather Forecast

Advertisements
Track Severe Weather on mobile